createdAt,value
2023-05-22T00:00:28.417Z,25.92
2023-05-22T00:03:18.589Z,25.92
2023-05-22T00:06:10.129Z,25.99
2023-05-22T00:08:58.830Z,25.96
2023-05-22T00:11:47.539Z,25.92
2023-05-22T00:14:36.142Z,25.82
2023-05-22T00:17:25.110Z,25.83
2023-05-22T00:20:15.355Z,25.80
2023-05-22T00:23:04.237Z,25.83
2023-05-22T00:25:52.846Z,25.81
2023-05-22T00:28:41.481Z,25.77
2023-05-22T00:31:30.121Z,25.79
2023-05-22T00:34:18.827Z,25.74
2023-05-22T00:37:08.893Z,25.71
2023-05-22T00:39:57.584Z,25.64
2023-05-22T00:42:47.116Z,25.64
2023-05-22T00:45:35.944Z,25.64
2023-05-22T00:48:25.166Z,25.60
2023-05-22T00:51:14.858Z,25.63
2023-05-22T00:54:05.752Z,25.60
2023-05-22T00:56:54.858Z,25.57
2023-05-22T00:59:43.658Z,25.55
2023-05-22T01:02:33.291Z,25.54
2023-05-22T01:05:22.606Z,25.53
2023-05-22T01:08:11.936Z,25.49
2023-05-22T01:11:06.180Z,25.46
2023-05-22T01:14:02.073Z,25.43
2023-05-22T01:17:00.047Z,25.41
2023-05-22T01:20:01.475Z,25.44
2023-05-22T01:23:20.804Z,25.45
2023-05-22T01:26:32.337Z,25.40
2023-05-22T01:29:44.457Z,25.38
2023-05-22T01:32:36.607Z,25.37
2023-05-22T01:35:26.304Z,25.33
2023-05-22T01:38:15.722Z,25.32
2023-05-22T01:41:04.846Z,25.35
2023-05-22T01:43:53.848Z,25.33
2023-05-22T01:46:42.567Z,25.31
2023-05-22T01:49:33.600Z,25.29
2023-05-22T01:52:30.862Z,25.25
2023-05-22T01:55:27.565Z,25.26
2023-05-22T01:58:26.004Z,25.22
2023-05-22T02:01:16.509Z,25.25
2023-05-22T02:04:07.563Z,25.29
2023-05-22T02:07:00.785Z,25.24
2023-05-22T02:09:52.229Z,25.25
2023-05-22T02:12:41.144Z,25.23
2023-05-22T02:15:29.812Z,25.23
2023-05-22T02:18:18.727Z,25.27
2023-05-22T02:21:08.646Z,25.25
2023-05-22T02:23:58.668Z,25.21
2023-05-22T02:26:47.820Z,25.16
2023-05-22T02:29:36.545Z,25.15
2023-05-22T02:32:25.256Z,25.12
2023-05-22T02:35:13.876Z,25.14
2023-05-22T02:38:02.639Z,25.16
2023-05-22T02:40:52.822Z,25.15
2023-05-22T02:43:41.469Z,25.09
2023-05-22T02:46:30.455Z,25.15
2023-05-22T02:49:19.154Z,25.14
2023-05-22T02:52:08.079Z,25.06
2023-05-22T02:54:56.710Z,25.03
2023-05-22T02:57:46.720Z,25.06
2023-05-22T03:00:35.437Z,25.05
2023-05-22T03:03:25.090Z,25.07
2023-05-22T03:06:14.029Z,25.04
2023-05-22T03:09:03.982Z,25.08
2023-05-22T03:11:52.637Z,25.05
2023-05-22T03:14:42.681Z,25.04
2023-05-22T03:17:31.354Z,25.01
2023-05-22T03:20:20.051Z,25.03
2023-05-22T03:23:08.721Z,24.98
2023-05-22T03:25:57.879Z,24.91
2023-05-22T03:28:46.567Z,24.90
2023-05-22T03:31:37.438Z,24.94
2023-05-22T03:34:27.295Z,24.90
2023-05-22T03:37:15.960Z,24.97
2023-05-22T03:40:05.880Z,24.97
2023-05-22T03:42:54.568Z,24.94
2023-05-22T03:45:43.884Z,24.98
2023-05-22T03:48:36.282Z,24.97
2023-05-22T03:51:26.012Z,24.91
2023-05-22T03:54:14.689Z,24.96
2023-05-22T03:57:03.427Z,24.96
2023-05-22T03:59:52.210Z,25.01
2023-05-22T04:02:44.841Z,24.98
2023-05-22T04:05:35.273Z,25.06
2023-05-22T04:08:24.166Z,25.00
2023-05-22T04:11:15.701Z,25.04
2023-05-22T04:14:05.666Z,24.94
2023-05-22T04:16:54.555Z,24.96
2023-05-22T04:19:46.174Z,24.96
2023-05-22T04:22:36.469Z,25.01
2023-05-22T04:25:25.086Z,24.95
2023-05-22T04:28:13.771Z,25.00
2023-05-22T04:31:06.496Z,25.04
2023-05-22T04:33:55.953Z,25.03
2023-05-22T04:36:47.022Z,24.96
2023-05-22T04:39:37.742Z,25.04
2023-05-22T04:42:28.193Z,24.90
2023-05-22T04:45:19.437Z,24.94
2023-05-22T04:48:08.638Z,25.01
2023-05-22T04:50:57.495Z,25.07
2023-05-22T04:53:49.895Z,25.06
2023-05-22T04:56:40.767Z,25.15
2023-05-22T04:59:29.393Z,25.12
2023-05-22T05:02:18.224Z,25.16
2023-05-22T05:05:07.527Z,25.10
2023-05-22T05:07:56.233Z,25.18
2023-05-22T05:10:45.193Z,25.11
2023-05-22T05:13:35.244Z,25.12
2023-05-22T05:16:25.073Z,25.13
2023-05-22T05:19:14.252Z,25.05
2023-05-22T05:22:03.277Z,25.15
2023-05-22T05:24:52.325Z,25.11
2023-05-22T05:27:41.119Z,25.07
2023-05-22T05:30:31.946Z,25.04
2023-05-22T05:33:20.793Z,24.98
2023-05-22T05:36:10.062Z,24.99
2023-05-22T05:38:58.992Z,25.03
2023-05-22T05:41:47.647Z,25.06
2023-05-22T05:44:36.519Z,25.10
2023-05-22T05:47:26.643Z,25.15
2023-05-22T05:50:16.078Z,25.21
2023-05-22T05:53:05.124Z,25.26
2023-05-22T05:55:53.685Z,25.29
2023-05-22T05:58:42.486Z,25.22
2023-05-22T06:01:33.086Z,25.32
2023-05-22T06:04:23.362Z,25.30
2023-05-22T06:07:12.472Z,25.29
2023-05-22T06:10:01.299Z,25.32
2023-05-22T06:12:49.994Z,25.36
2023-05-22T06:15:38.703Z,25.39
2023-05-22T06:18:27.424Z,25.39
2023-05-22T06:21:17.871Z,25.45
2023-05-22T06:24:07.773Z,25.47
2023-05-22T06:26:56.438Z,25.45
2023-05-22T06:29:45.095Z,25.50
2023-05-22T06:32:33.869Z,25.55
2023-05-22T06:35:22.812Z,25.63
2023-05-22T06:38:12.800Z,25.68
2023-05-22T06:41:01.551Z,25.67
2023-05-22T06:43:50.200Z,25.70
2023-05-22T06:46:38.999Z,25.69
2023-05-22T06:49:27.732Z,25.79
2023-05-22T06:52:16.409Z,25.86
2023-05-22T06:55:07.164Z,25.83
2023-05-22T06:57:58.588Z,25.91
2023-05-22T07:00:47.268Z,25.94
2023-05-22T07:03:35.923Z,25.97
2023-05-22T07:06:24.754Z,26.04
2023-05-22T07:09:14.870Z,26.08
2023-05-22T07:12:05.415Z,26.10
2023-05-22T07:14:54.588Z,26.14
2023-05-22T07:17:43.297Z,26.13
2023-05-22T07:20:32.659Z,26.08
2023-05-22T07:23:21.311Z,26.23
2023-05-22T07:26:10.162Z,26.18
2023-05-22T07:29:00.158Z,26.31
2023-05-22T07:31:48.870Z,26.10
2023-05-22T07:34:37.817Z,26.08
2023-05-22T07:37:26.532Z,26.08
2023-05-22T07:40:15.354Z,26.02
2023-05-22T07:43:03.994Z,26.14
2023-05-22T07:45:54.710Z,26.20
2023-05-22T07:48:44.074Z,26.15
2023-05-22T07:51:32.985Z,26.25
2023-05-22T07:54:24.546Z,26.30
2023-05-22T07:57:13.249Z,26.28
2023-05-22T08:00:06.780Z,26.22
2023-05-22T08:02:57.188Z,26.21
2023-05-22T08:05:46.487Z,26.22
2023-05-22T08:08:35.512Z,26.28
2023-05-22T08:11:26.154Z,26.31
2023-05-22T08:14:14.969Z,26.44
2023-05-22T08:17:04.341Z,26.53
2023-05-22T08:19:54.533Z,26.43
2023-05-22T08:22:43.840Z,26.38
2023-05-22T08:25:32.661Z,26.47
2023-05-22T08:28:21.288Z,26.50
2023-05-22T08:31:09.993Z,26.53
2023-05-22T08:34:04.676Z,26.52
2023-05-22T08:36:54.692Z,26.59
2023-05-22T08:39:43.346Z,26.63
2023-05-22T08:42:34.129Z,26.65
2023-05-22T08:45:22.741Z,26.69
2023-05-22T08:48:14.780Z,26.78
2023-05-22T08:51:05.868Z,26.80
2023-05-22T08:53:58.239Z,26.97
2023-05-22T08:56:56.119Z,26.94
2023-05-22T08:59:47.500Z,26.89
2023-05-22T09:02:36.436Z,26.88
2023-05-22T09:05:27.447Z,26.97
2023-05-22T09:08:20.439Z,27.03
2023-05-22T09:11:12.614Z,27.14
2023-05-22T09:14:09.360Z,27.21
2023-05-22T09:16:58.217Z,27.24
2023-05-22T09:19:47.295Z,27.33
2023-05-22T09:22:38.945Z,27.31
2023-05-22T09:25:29.197Z,27.22
2023-05-22T09:28:20.496Z,27.23
2023-05-22T09:31:09.550Z,27.35
2023-05-22T09:33:58.314Z,27.43
2023-05-22T09:36:47.004Z,27.55
2023-05-22T09:39:40.952Z,27.30
2023-05-22T09:42:30.065Z,27.33
2023-05-22T09:45:24.021Z,27.46
2023-05-22T09:48:12.788Z,27.49
2023-05-22T09:51:02.073Z,27.34
2023-05-22T09:53:51.271Z,27.31
2023-05-22T09:56:42.034Z,27.40
2023-05-22T09:59:33.095Z,27.44
2023-05-22T10:02:24.600Z,27.45
2023-05-22T10:05:21.166Z,27.47
2023-05-22T10:08:12.987Z,27.45
2023-05-22T10:11:02.266Z,27.52
2023-05-22T10:13:52.946Z,27.62
2023-05-22T10:16:42.644Z,27.57
2023-05-22T10:19:33.390Z,27.55
2023-05-22T10:22:23.290Z,27.54
2023-05-22T10:25:12.328Z,27.61
2023-05-22T10:28:01.811Z,27.52
2023-05-22T10:30:55.566Z,27.47
2023-05-22T10:33:49.558Z,27.55
2023-05-22T10:37:16.558Z,27.53
2023-05-22T10:40:12.586Z,27.51
2023-05-22T10:43:01.880Z,27.52
2023-05-22T10:45:50.694Z,27.53
2023-05-22T10:48:40.002Z,27.56
2023-05-22T10:51:28.773Z,27.47
2023-05-22T10:54:18.839Z,27.50
2023-05-22T10:57:16.325Z,27.64
2023-05-22T11:00:10.798Z,27.68
2023-05-22T11:03:18.042Z,27.54
2023-05-22T11:06:07.840Z,27.64
2023-05-22T11:08:58.548Z,27.75
2023-05-22T11:11:48.961Z,27.78
2023-05-22T11:14:38.198Z,27.78
2023-05-22T11:17:29.181Z,27.80
2023-05-22T11:20:22.400Z,27.85
2023-05-22T11:23:12.855Z,27.81
2023-05-22T11:26:19.922Z,27.88
2023-05-22T11:29:12.837Z,27.84
2023-05-22T11:32:01.923Z,27.81
2023-05-22T11:34:51.111Z,27.81
2023-05-22T11:37:40.865Z,27.79
2023-05-22T11:40:30.413Z,27.79
2023-05-22T11:43:33.132Z,27.82
2023-05-22T11:46:23.440Z,27.65
2023-05-22T11:49:13.281Z,27.56
2023-05-22T11:52:01.991Z,27.55
2023-05-22T11:54:51.201Z,27.58
2023-05-22T11:57:40.342Z,27.62
2023-05-22T12:00:29.592Z,27.57
2023-05-22T12:03:19.860Z,27.52
2023-05-22T12:06:08.783Z,27.62
2023-05-22T12:08:57.469Z,27.62
2023-05-22T12:11:48.570Z,27.50
2023-05-22T12:14:37.348Z,27.71
2023-05-22T12:17:26.332Z,27.77
2023-05-22T12:20:16.589Z,27.75
2023-05-22T12:23:05.451Z,27.61
2023-05-22T12:26:01.714Z,27.67
2023-05-22T12:28:55.522Z,27.78
2023-05-22T12:31:46.436Z,27.68
2023-05-22T12:34:35.927Z,27.74
2023-05-22T12:37:30.427Z,27.66
2023-05-22T12:40:19.696Z,27.74
2023-05-22T12:43:08.410Z,27.71
2023-05-22T12:45:57.226Z,27.82
2023-05-22T12:48:46.204Z,27.76
2023-05-22T12:51:35.229Z,27.70
2023-05-22T12:54:25.306Z,27.68
2023-05-22T12:57:14.087Z,27.68
2023-05-22T13:00:03.084Z,27.63
2023-05-22T13:02:51.891Z,27.72
2023-05-22T13:05:40.850Z,27.75
2023-05-22T13:08:29.872Z,27.78
2023-05-22T13:11:23.401Z,27.74
2023-05-22T13:14:12.282Z,27.73
2023-05-22T13:17:01.009Z,27.69
2023-05-22T13:19:52.582Z,27.65
2023-05-22T13:22:41.820Z,27.69
2023-05-22T13:25:30.633Z,27.95
2023-05-22T13:28:20.849Z,28.02
2023-05-22T13:31:09.601Z,28.19
2023-05-22T13:33:58.882Z,28.33
2023-05-22T13:36:48.265Z,28.27
2023-05-22T13:39:37.592Z,28.32
2023-05-22T13:42:26.244Z,28.42
2023-05-22T13:45:16.281Z,28.57
2023-05-22T13:48:05.308Z,28.69
2023-05-22T13:50:54.202Z,28.48
2023-05-22T13:53:42.956Z,28.61
2023-05-22T13:56:31.717Z,28.74
2023-05-22T13:59:20.521Z,28.71
2023-05-22T14:02:11.212Z,28.85
2023-05-22T14:05:00.412Z,28.81
2023-05-22T14:07:49.546Z,28.49
2023-05-22T14:10:42.222Z,28.52
2023-05-22T14:13:33.761Z,28.50
2023-05-22T14:16:25.533Z,28.78
2023-05-22T14:19:15.675Z,28.54
2023-05-22T14:22:07.525Z,28.55
2023-05-22T14:24:57.018Z,28.48
2023-05-22T14:27:45.823Z,28.72
2023-05-22T14:30:34.527Z,28.88
2023-05-22T14:33:23.207Z,28.74
2023-05-22T14:36:13.304Z,28.61
2023-05-22T14:39:02.070Z,28.55
2023-05-22T14:41:50.797Z,28.63
2023-05-22T14:44:39.594Z,28.78
2023-05-22T14:47:28.393Z,28.79
2023-05-22T14:50:20.293Z,28.66
2023-05-22T14:53:11.631Z,28.67
2023-05-22T14:56:00.400Z,28.67
2023-05-22T14:58:49.078Z,28.56
2023-05-22T15:01:37.832Z,28.66
2023-05-22T15:04:26.885Z,28.53
2023-05-22T15:07:15.718Z,28.63
2023-05-22T15:10:09.132Z,28.58
2023-05-22T15:12:57.894Z,28.55
2023-05-22T15:15:46.657Z,28.45
2023-05-22T15:18:35.397Z,28.46
2023-05-22T15:21:24.134Z,28.49
2023-05-22T15:24:13.113Z,28.49
2023-05-22T15:27:03.247Z,28.47
2023-05-22T15:29:52.047Z,28.45
2023-05-22T15:32:40.780Z,28.48
2023-05-22T15:35:30.940Z,28.48
2023-05-22T15:38:20.158Z,28.50
2023-05-22T15:41:08.937Z,28.45
2023-05-22T15:43:59.080Z,28.55
2023-05-22T15:46:47.718Z,28.52
2023-05-22T15:49:36.505Z,28.88
2023-05-22T15:52:25.365Z,28.63
2023-05-22T15:55:14.134Z,28.56
2023-05-22T15:58:06.093Z,28.48
2023-05-22T16:00:56.930Z,28.51
2023-05-22T16:03:45.708Z,28.44
2023-05-22T16:06:34.818Z,28.49
2023-05-22T16:09:23.542Z,28.49
2023-05-22T16:12:12.277Z,28.40
2023-05-22T16:15:02.307Z,28.42
2023-05-22T16:17:54.747Z,28.44
2023-05-22T16:20:43.624Z,28.49
2023-05-22T16:23:33.788Z,28.50
2023-05-22T16:26:24.753Z,28.54
2023-05-22T16:29:13.565Z,28.50
2023-05-22T16:32:05.468Z,28.47
2023-05-22T16:34:55.951Z,28.53
2023-05-22T16:37:44.861Z,28.49
2023-05-22T16:40:38.018Z,28.48
2023-05-22T16:43:26.694Z,28.49
2023-05-22T16:46:15.677Z,28.45
2023-05-22T16:49:04.683Z,28.46
2023-05-22T16:51:55.172Z,28.49
2023-05-22T16:54:43.865Z,28.55
2023-05-22T16:57:32.939Z,28.50
2023-05-22T17:00:22.267Z,28.52
2023-05-22T17:03:11.976Z,28.52
2023-05-22T17:06:01.293Z,28.50
2023-05-22T17:08:51.297Z,28.52
2023-05-22T17:11:40.063Z,28.63
2023-05-22T17:14:28.750Z,28.59
2023-05-22T17:17:17.389Z,28.53
2023-05-22T17:20:07.762Z,28.48
2023-05-22T17:22:56.549Z,28.42
2023-05-22T17:25:47.600Z,28.42
2023-05-22T17:28:36.448Z,28.40
2023-05-22T17:31:25.710Z,28.40
2023-05-22T17:34:14.502Z,28.48
2023-05-22T17:37:03.191Z,28.52
2023-05-22T17:39:51.889Z,28.53
2023-05-22T17:42:42.117Z,28.45
2023-05-22T17:45:31.919Z,28.36
2023-05-22T17:48:23.987Z,28.42
2023-05-22T17:51:12.633Z,28.47
2023-05-22T17:54:01.363Z,28.37
2023-05-22T17:56:50.167Z,28.31
2023-05-22T17:59:40.702Z,28.31
2023-05-22T18:02:32.089Z,28.29
2023-05-22T18:05:20.908Z,28.32
2023-05-22T18:08:09.652Z,28.30
2023-05-22T18:10:59.257Z,28.30
2023-05-22T18:13:48.177Z,28.26
2023-05-22T18:16:38.266Z,28.22
2023-05-22T18:19:27.203Z,28.23
2023-05-22T18:22:16.428Z,28.19
2023-05-22T18:25:05.282Z,28.41
2023-05-22T18:27:56.871Z,28.45
2023-05-22T18:30:45.718Z,28.28
2023-05-22T18:33:36.017Z,28.37
2023-05-22T18:36:24.789Z,28.48
2023-05-22T18:39:15.178Z,28.51
2023-05-22T18:42:07.167Z,28.29
2023-05-22T18:44:56.361Z,28.33
2023-05-22T18:47:45.309Z,28.16
2023-05-22T18:50:35.485Z,28.11
2023-05-22T18:53:26.040Z,28.03
2023-05-22T18:56:15.023Z,28.01
2023-05-22T18:59:03.697Z,28.06
2023-05-22T19:01:52.720Z,28.05
2023-05-22T19:04:45.417Z,28.00
2023-05-22T19:07:35.629Z,28.00
2023-05-22T19:10:24.286Z,27.93
2023-05-22T19:13:12.972Z,27.88
2023-05-22T19:16:01.775Z,27.87
2023-05-22T19:18:50.857Z,27.83
2023-05-22T19:21:39.904Z,27.81
2023-05-22T19:24:30.471Z,27.70
2023-05-22T19:27:19.566Z,27.62
2023-05-22T19:30:09.378Z,27.59
2023-05-22T19:32:58.099Z,27.55
2023-05-22T19:35:46.948Z,27.57
2023-05-22T19:38:35.648Z,27.54
2023-05-22T19:41:26.661Z,27.54
2023-05-22T19:44:15.339Z,27.47
2023-05-22T19:47:04.155Z,27.55
2023-05-22T19:49:52.857Z,27.52
2023-05-22T19:52:41.766Z,27.52
2023-05-22T19:55:30.463Z,27.46
2023-05-22T19:58:21.255Z,27.50
2023-05-22T20:01:10.019Z,27.44
2023-05-22T20:03:58.755Z,27.43
2023-05-22T20:06:48.481Z,27.51
2023-05-22T20:09:46.658Z,27.47
2023-05-22T20:12:35.748Z,27.47
2023-05-22T20:15:25.964Z,27.42
2023-05-22T20:18:17.384Z,27.33
2023-05-22T20:21:06.239Z,27.35
2023-05-22T20:23:55.509Z,27.36
2023-05-22T20:26:48.682Z,27.33
2023-05-22T20:29:46.959Z,27.35
2023-05-22T20:32:36.972Z,27.29
2023-05-22T20:35:26.533Z,27.36
2023-05-22T20:38:15.311Z,27.28
2023-05-22T20:41:08.126Z,27.32
2023-05-22T20:43:58.589Z,27.31
2023-05-22T20:46:47.683Z,27.34
2023-05-22T20:49:38.333Z,27.34
2023-05-22T20:52:30.299Z,27.33
2023-05-22T20:55:19.053Z,27.30
2023-05-22T20:58:09.176Z,27.31
2023-05-22T21:00:57.900Z,27.25
2023-05-22T21:03:46.717Z,27.25
2023-05-22T21:06:37.075Z,27.26
2023-05-22T21:09:25.772Z,27.28
2023-05-22T21:12:14.395Z,27.28
2023-05-22T21:15:06.106Z,27.28
2023-05-22T21:17:54.962Z,27.22
2023-05-22T21:20:43.760Z,27.24
2023-05-22T21:23:33.838Z,27.25
2023-05-22T21:26:23.094Z,27.19
2023-05-22T21:29:12.073Z,27.23
2023-05-22T21:32:00.948Z,27.19
2023-05-22T21:34:49.671Z,27.13
2023-05-22T21:37:38.273Z,27.09
2023-05-22T21:40:28.259Z,27.11
2023-05-22T21:43:16.958Z,27.09
2023-05-22T21:46:05.961Z,27.12
2023-05-22T21:48:54.775Z,27.14
2023-05-22T21:51:43.481Z,27.08
2023-05-22T21:54:32.115Z,27.06
2023-05-22T21:57:22.230Z,27.05
2023-05-22T22:00:11.862Z,27.08
2023-05-22T22:03:00.683Z,27.08
2023-05-22T22:05:49.550Z,27.10
2023-05-22T22:08:38.321Z,27.09
2023-05-22T22:11:27.467Z,27.06
2023-05-22T22:14:17.547Z,27.05
2023-05-22T22:17:07.816Z,27.07
2023-05-22T22:19:57.151Z,27.09
2023-05-22T22:22:46.009Z,27.09
2023-05-22T22:25:34.665Z,27.11
2023-05-22T22:28:23.564Z,27.12
2023-05-22T22:31:13.748Z,27.09
2023-05-22T22:34:02.950Z,27.09
2023-05-22T22:36:51.815Z,27.12
2023-05-22T22:39:40.636Z,27.13
2023-05-22T22:42:29.363Z,27.09
2023-05-22T22:45:18.031Z,27.10
2023-05-22T22:48:08.519Z,27.06
2023-05-22T22:50:57.900Z,27.06
2023-05-22T22:53:46.633Z,27.09
2023-05-22T22:56:35.849Z,27.09
2023-05-22T22:59:24.653Z,27.07
2023-05-22T23:02:13.328Z,27.04
2023-05-22T23:05:03.666Z,27.08
2023-05-22T23:07:52.413Z,27.07
2023-05-22T23:10:41.026Z,27.08
2023-05-22T23:13:29.773Z,27.05
2023-05-22T23:16:18.574Z,27.08
2023-05-22T23:19:07.949Z,27.04
2023-05-22T23:21:58.085Z,27.04
2023-05-22T23:24:46.779Z,27.01
2023-05-22T23:27:36.442Z,27.02
2023-05-22T23:30:25.130Z,27.02
2023-05-22T23:33:13.816Z,27.02
2023-05-22T23:36:02.459Z,27.00
2023-05-22T23:38:52.652Z,27.00
2023-05-22T23:41:42.163Z,27.03
2023-05-22T23:44:31.306Z,27.05
2023-05-22T23:47:20.036Z,27.03
2023-05-22T23:50:09.459Z,27.05
2023-05-22T23:52:58.075Z,27.02
2023-05-22T23:55:48.201Z,27.02
2023-05-22T23:58:36.845Z,27.07
